sensor_id;sensor_type;location;lat;lon;timestamp;P1;durP1;ratioP1;P2;durP2;ratioP2
10212;SDS011;5150;51.400;6.692;2022-10-31T00:03:05;10.45;;;6.30;;
10212;SDS011;5150;51.400;6.692;2022-10-31T00:06:28;6.90;;;6.20;;
10212;SDS011;5150;51.400;6.692;2022-10-31T00:09:51;8.55;;;6.38;;
10212;SDS011;5150;51.400;6.692;2022-10-31T00:13:15;11.77;;;6.30;;
10212;SDS011;5150;51.400;6.692;2022-10-31T00:16:38;13.50;;;7.03;;
10212;SDS011;5150;51.400;6.692;2022-10-31T00:20:01;8.80;;;6.18;;
10212;SDS011;5150;51.400;6.692;2022-10-31T00:23:25;8.35;;;6.82;;
10212;SDS011;5150;51.400;6.692;2022-10-31T00:26:47;6.75;;;5.72;;
10212;SDS011;5150;51.400;6.692;2022-10-31T00:30:12;6.32;;;5.70;;
10212;SDS011;5150;51.400;6.692;2022-10-31T00:33:36;7.25;;;6.50;;
10212;SDS011;5150;51.400;6.692;2022-10-31T00:37:00;12.82;;;6.95;;
10212;SDS011;5150;51.400;6.692;2022-10-31T00:40:23;10.18;;;6.38;;
10212;SDS011;5150;51.400;6.692;2022-10-31T00:43:46;30.27;;;7.40;;
10212;SDS011;5150;51.400;6.692;2022-10-31T00:47:11;6.82;;;5.95;;
10212;SDS011;5150;51.400;6.692;2022-10-31T00:50:34;10.02;;;5.90;;
10212;SDS011;5150;51.400;6.692;2022-10-31T00:53:57;14.70;;;7.93;;
10212;SDS011;5150;51.400;6.692;2022-10-31T00:57:19;9.77;;;7.63;;
10212;SDS011;5150;51.400;6.692;2022-10-31T01:00:42;7.90;;;5.65;;
10212;SDS011;5150;51.400;6.692;2022-10-31T01:04:12;8.40;;;7.13;;
10212;SDS011;5150;51.400;6.692;2022-10-31T01:07:35;11.55;;;7.40;;
10212;SDS011;5150;51.400;6.692;2022-10-31T01:11:04;14.07;;;6.55;;
10212;SDS011;5150;51.400;6.692;2022-10-31T01:14:28;7.45;;;5.78;;
10212;SDS011;5150;51.400;6.692;2022-10-31T01:17:51;9.65;;;7.05;;
10212;SDS011;5150;51.400;6.692;2022-10-31T01:21:16;10.63;;;6.57;;
10212;SDS011;5150;51.400;6.692;2022-10-31T01:24:42;10.05;;;7.30;;
10212;SDS011;5150;51.400;6.692;2022-10-31T01:28:05;7.97;;;6.72;;
10212;SDS011;5150;51.400;6.692;2022-10-31T01:31:29;8.20;;;7.00;;
10212;SDS011;5150;51.400;6.692;2022-10-31T01:34:54;9.25;;;5.90;;
10212;SDS011;5150;51.400;6.692;2022-10-31T01:38:18;11.68;;;7.40;;
10212;SDS011;5150;51.400;6.692;2022-10-31T01:41:42;13.13;;;6.80;;
10212;SDS011;5150;51.400;6.692;2022-10-31T01:45:09;8.10;;;6.78;;
10212;SDS011;5150;51.400;6.692;2022-10-31T01:48:32;11.60;;;6.70;;
10212;SDS011;5150;51.400;6.692;2022-10-31T01:51:56;12.15;;;6.43;;
10212;SDS011;5150;51.400;6.692;2022-10-31T01:55:25;21.52;;;7.95;;
10212;SDS011;5150;51.400;6.692;2022-10-31T01:58:51;9.73;;;5.78;;
10212;SDS011;5150;51.400;6.692;2022-10-31T02:02:15;15.13;;;8.00;;
10212;SDS011;5150;51.400;6.692;2022-10-31T02:05:41;6.75;;;5.70;;
10212;SDS011;5150;51.400;6.692;2022-10-31T02:09:05;10.00;;;6.68;;
10212;SDS011;5150;51.400;6.692;2022-10-31T02:12:30;10.60;;;6.50;;
10212;SDS011;5150;51.400;6.692;2022-10-31T02:15:56;8.38;;;6.70;;
10212;SDS011;5150;51.400;6.692;2022-10-31T02:19:24;9.05;;;6.00;;
10212;SDS011;5150;51.400;6.692;2022-10-31T02:27:07;7.75;;;6.07;;
10212;SDS011;5150;51.400;6.692;2022-10-31T02:30:52;13.23;;;6.45;;
10212;SDS011;5150;51.400;6.692;2022-10-31T02:34:25;10.27;;;6.30;;
10212;SDS011;5150;51.400;6.692;2022-10-31T02:37:55;8.10;;;6.15;;
10212;SDS011;5150;51.400;6.692;2022-10-31T02:41:26;7.10;;;6.25;;
10212;SDS011;5150;51.400;6.692;2022-10-31T02:45:02;11.93;;;6.78;;
10212;SDS011;5150;51.400;6.692;2022-10-31T02:48:31;11.75;;;6.78;;
10212;SDS011;5150;51.400;6.692;2022-10-31T02:51:57;9.20;;;6.55;;
10212;SDS011;5150;51.400;6.692;2022-10-31T02:59:09;11.18;;;6.30;;
10212;SDS011;5150;51.400;6.692;2022-10-31T03:06:20;13.57;;;7.15;;
10212;SDS011;5150;51.400;6.692;2022-10-31T03:09:52;10.15;;;5.78;;
10212;SDS011;5150;51.400;6.692;2022-10-31T03:13:23;11.32;;;6.50;;
10212;SDS011;5150;51.400;6.692;2022-10-31T03:16:53;10.35;;;6.05;;
10212;SDS011;5150;51.400;6.692;2022-10-31T03:20:24;8.43;;;6.65;;
10212;SDS011;5150;51.400;6.692;2022-10-31T03:23:53;8.40;;;5.78;;
10212;SDS011;5150;51.400;6.692;2022-10-31T03:27:18;11.43;;;6.68;;
10212;SDS011;5150;51.400;6.692;2022-10-31T03:30:45;10.95;;;6.68;;
10212;SDS011;5150;51.400;6.692;2022-10-31T03:34:09;10.82;;;5.60;;
10212;SDS011;5150;51.400;6.692;2022-10-31T03:37:35;11.95;;;5.95;;
10212;SDS011;5150;51.400;6.692;2022-10-31T03:41:05;7.13;;;5.68;;
10212;SDS011;5150;51.400;6.692;2022-10-31T03:44:33;11.80;;;6.88;;
10212;SDS011;5150;51.400;6.692;2022-10-31T03:47:57;6.80;;;6.10;;
10212;SDS011;5150;51.400;6.692;2022-10-31T03:51:22;9.05;;;5.80;;
10212;SDS011;5150;51.400;6.692;2022-10-31T03:54:51;6.00;;;5.40;;
10212;SDS011;5150;51.400;6.692;2022-10-31T03:58:20;11.60;;;6.03;;
10212;SDS011;5150;51.400;6.692;2022-10-31T04:01:47;9.77;;;6.25;;
10212;SDS011;5150;51.400;6.692;2022-10-31T04:05:14;10.02;;;6.05;;
10212;SDS011;5150;51.400;6.692;2022-10-31T04:08:39;7.22;;;5.55;;
10212;SDS011;5150;51.400;6.692;2022-10-31T04:12:10;7.10;;;5.15;;
10212;SDS011;5150;51.400;6.692;2022-10-31T04:15:46;10.00;;;7.00;;
10212;SDS011;5150;51.400;6.692;2022-10-31T04:19:12;10.13;;;6.15;;
10212;SDS011;5150;51.400;6.692;2022-10-31T04:22:36;8.48;;;5.38;;
10212;SDS011;5150;51.400;6.692;2022-10-31T04:25:59;9.48;;;6.05;;
10212;SDS011;5150;51.400;6.692;2022-10-31T04:29:23;8.63;;;5.68;;
10212;SDS011;5150;51.400;6.692;2022-10-31T04:32:48;11.38;;;6.00;;
10212;SDS011;5150;51.400;6.692;2022-10-31T04:36:11;8.90;;;5.97;;
10212;SDS011;5150;51.400;6.692;2022-10-31T04:39:36;7.07;;;5.30;;
10212;SDS011;5150;51.400;6.692;2022-10-31T04:43:19;9.73;;;6.22;;
10212;SDS011;5150;51.400;6.692;2022-10-31T04:46:42;12.70;;;5.97;;
10212;SDS011;5150;51.400;6.692;2022-10-31T04:50:06;7.70;;;6.22;;
10212;SDS011;5150;51.400;6.692;2022-10-31T04:53:31;10.77;;;5.68;;
10212;SDS011;5150;51.400;6.692;2022-10-31T04:57:14;11.57;;;6.28;;
10212;SDS011;5150;51.400;6.692;2022-10-31T05:00:37;9.32;;;5.68;;
10212;SDS011;5150;51.400;6.692;2022-10-31T05:04:01;10.30;;;5.53;;
10212;SDS011;5150;51.400;6.692;2022-10-31T05:07:27;8.23;;;5.65;;
10212;SDS011;5150;51.400;6.692;2022-10-31T05:10:50;13.63;;;6.07;;
10212;SDS011;5150;51.400;6.692;2022-10-31T05:14:14;10.10;;;5.50;;
10212;SDS011;5150;51.400;6.692;2022-10-31T05:18:12;9.73;;;5.45;;
10212;SDS011;5150;51.400;6.692;2022-10-31T05:21:55;6.75;;;5.53;;
10212;SDS011;5150;51.400;6.692;2022-10-31T05:25:21;8.98;;;6.68;;
10212;SDS011;5150;51.400;6.692;2022-10-31T05:28:45;8.80;;;5.15;;
10212;SDS011;5150;51.400;6.692;2022-10-31T05:32:09;8.20;;;5.90;;
10212;SDS011;5150;51.400;6.692;2022-10-31T05:36:07;10.35;;;6.05;;
10212;SDS011;5150;51.400;6.692;2022-10-31T05:39:42;10.32;;;5.60;;
10212;SDS011;5150;51.400;6.692;2022-10-31T05:43:10;15.88;;;5.47;;
10212;SDS011;5150;51.400;6.692;2022-10-31T05:46:33;7.30;;;5.75;;
10212;SDS011;5150;51.400;6.692;2022-10-31T05:49:56;6.22;;;5.63;;
10212;SDS011;5150;51.400;6.692;2022-10-31T05:53:39;6.10;;;5.55;;
10212;SDS011;5150;51.400;6.692;2022-10-31T05:57:02;9.63;;;5.38;;
10212;SDS011;5150;51.400;6.692;2022-10-31T06:00:27;16.75;;;5.97;;
10212;SDS011;5150;51.400;6.692;2022-10-31T06:03:59;9.50;;;5.95;;
10212;SDS011;5150;51.400;6.692;2022-10-31T06:07:22;10.30;;;5.97;;
10212;SDS011;5150;51.400;6.692;2022-10-31T06:10:46;8.05;;;5.93;;
10212;SDS011;5150;51.400;6.692;2022-10-31T06:14:14;9.48;;;5.07;;
10212;SDS011;5150;51.400;6.692;2022-10-31T06:17:45;8.63;;;6.07;;
10212;SDS011;5150;51.400;6.692;2022-10-31T06:21:17;8.20;;;5.45;;
10212;SDS011;5150;51.400;6.692;2022-10-31T06:24:42;6.78;;;5.80;;
10212;SDS011;5150;51.400;6.692;2022-10-31T06:28:20;10.88;;;5.32;;
10212;SDS011;5150;51.400;6.692;2022-10-31T06:31:50;10.57;;;5.45;;
10212;SDS011;5150;51.400;6.692;2022-10-31T06:35:15;6.47;;;5.88;;
10212;SDS011;5150;51.400;6.692;2022-10-31T06:38:38;11.18;;;5.65;;
10212;SDS011;5150;51.400;6.692;2022-10-31T06:42:03;8.20;;;4.80;;
10212;SDS011;5150;51.400;6.692;2022-10-31T06:45:28;15.30;;;5.88;;
10212;SDS011;5150;51.400;6.692;2022-10-31T06:49:15;7.63;;;6.07;;
10212;SDS011;5150;51.400;6.692;2022-10-31T06:52:52;11.77;;;5.85;;
10212;SDS011;5150;51.400;6.692;2022-10-31T06:56:16;9.38;;;5.57;;
10212;SDS011;5150;51.400;6.692;2022-10-31T06:59:43;7.40;;;5.63;;
10212;SDS011;5150;51.400;6.692;2022-10-31T07:03:16;8.63;;;5.78;;
10212;SDS011;5150;51.400;6.692;2022-10-31T07:06:39;8.27;;;4.85;;
10212;SDS011;5150;51.400;6.692;2022-10-31T07:10:04;11.13;;;6.50;;
10212;SDS011;5150;51.400;6.692;2022-10-31T07:13:40;6.97;;;5.07;;
10212;SDS011;5150;51.400;6.692;2022-10-31T07:17:03;23.25;;;6.15;;
10212;SDS011;5150;51.400;6.692;2022-10-31T07:20:33;10.45;;;6.43;;
10212;SDS011;5150;51.400;6.692;2022-10-31T07:23:56;10.05;;;6.43;;
10212;SDS011;5150;51.400;6.692;2022-10-31T07:27:47;12.48;;;7.25;;
10212;SDS011;5150;51.400;6.692;2022-10-31T07:31:12;11.27;;;5.75;;
10212;SDS011;5150;51.400;6.692;2022-10-31T07:34:36;7.05;;;5.32;;
10212;SDS011;5150;51.400;6.692;2022-10-31T07:38:13;9.77;;;6.38;;
10212;SDS011;5150;51.400;6.692;2022-10-31T07:41:38;6.40;;;5.85;;
10212;SDS011;5150;51.400;6.692;2022-10-31T07:45:05;9.10;;;6.25;;
10212;SDS011;5150;51.400;6.692;2022-10-31T07:48:49;6.45;;;5.80;;
10212;SDS011;5150;51.400;6.692;2022-10-31T07:52:57;7.90;;;5.57;;
10212;SDS011;5150;51.400;6.692;2022-10-31T07:56:37;8.73;;;5.60;;
10212;SDS011;5150;51.400;6.692;2022-10-31T08:00:00;8.77;;;6.03;;
10212;SDS011;5150;51.400;6.692;2022-10-31T08:03:36;6.70;;;6.00;;
10212;SDS011;5150;51.400;6.692;2022-10-31T08:06:59;9.80;;;6.00;;
10212;SDS011;5150;51.400;6.692;2022-10-31T08:10:28;8.02;;;5.47;;
10212;SDS011;5150;51.400;6.692;2022-10-31T08:13:51;6.57;;;5.93;;
10212;SDS011;5150;51.400;6.692;2022-10-31T08:17:14;12.07;;;6.68;;
10212;SDS011;5150;51.400;6.692;2022-10-31T08:20:49;6.55;;;5.68;;
10212;SDS011;5150;51.400;6.692;2022-10-31T08:24:12;6.35;;;5.43;;
10212;SDS011;5150;51.400;6.692;2022-10-31T08:27:36;6.28;;;5.07;;
10212;SDS011;5150;51.400;6.692;2022-10-31T08:30:59;7.07;;;5.63;;
10212;SDS011;5150;51.400;6.692;2022-10-31T08:34:34;8.80;;;6.30;;
10212;SDS011;5150;51.400;6.692;2022-10-31T08:38:30;9.32;;;5.90;;
10212;SDS011;5150;51.400;6.692;2022-10-31T08:41:54;12.15;;;6.50;;
10212;SDS011;5150;51.400;6.692;2022-10-31T08:45:17;16.95;;;6.55;;
10212;SDS011;5150;51.400;6.692;2022-10-31T08:48:40;13.98;;;7.10;;
10212;SDS011;5150;51.400;6.692;2022-10-31T08:52:03;15.15;;;6.38;;
10212;SDS011;5150;51.400;6.692;2022-10-31T08:55:36;12.82;;;6.45;;
10212;SDS011;5150;51.400;6.692;2022-10-31T08:59:16;11.40;;;6.25;;
10212;SDS011;5150;51.400;6.692;2022-10-31T09:02:57;11.85;;;6.38;;
10212;SDS011;5150;51.400;6.692;2022-10-31T09:06:24;13.45;;;6.22;;
10212;SDS011;5150;51.400;6.692;2022-10-31T09:09:47;9.68;;;6.65;;
10212;SDS011;5150;51.400;6.692;2022-10-31T09:13:14;12.70;;;6.22;;
10212;SDS011;5150;51.400;6.692;2022-10-31T09:17:11;9.15;;;6.18;;
10212;SDS011;5150;51.400;6.692;2022-10-31T09:20:49;12.27;;;7.30;;
10212;SDS011;5150;51.400;6.692;2022-10-31T09:24:12;10.98;;;6.13;;
10212;SDS011;5150;51.400;6.692;2022-10-31T09:27:36;9.48;;;6.38;;
10212;SDS011;5150;51.400;6.692;2022-10-31T09:31:01;12.75;;;5.90;;
10212;SDS011;5150;51.400;6.692;2022-10-31T09:34:40;15.32;;;5.57;;
10212;SDS011;5150;51.400;6.692;2022-10-31T09:38:05;10.32;;;5.78;;
10212;SDS011;5150;51.400;6.692;2022-10-31T09:41:31;12.75;;;5.78;;
10212;SDS011;5150;51.400;6.692;2022-10-31T09:45:07;10.95;;;6.00;;
10212;SDS011;5150;51.400;6.692;2022-10-31T09:48:43;14.52;;;6.03;;
10212;SDS011;5150;51.400;6.692;2022-10-31T09:52:20;13.20;;;6.07;;
10212;SDS011;5150;51.400;6.692;2022-10-31T09:55:47;11.32;;;5.88;;
10212;SDS011;5150;51.400;6.692;2022-10-31T09:59:11;13.43;;;7.15;;
10212;SDS011;5150;51.400;6.692;2022-10-31T10:02:44;13.75;;;5.97;;
10212;SDS011;5150;51.400;6.692;2022-10-31T10:06:14;9.60;;;6.18;;
10212;SDS011;5150;51.400;6.692;2022-10-31T10:09:57;8.05;;;6.13;;
10212;SDS011;5150;51.400;6.692;2022-10-31T10:17:34;16.70;;;6.95;;
10212;SDS011;5150;51.400;6.692;2022-10-31T10:21:08;8.38;;;6.43;;
10212;SDS011;5150;51.400;6.692;2022-10-31T10:24:47;9.60;;;6.68;;
10212;SDS011;5150;51.400;6.692;2022-10-31T10:28:23;22.35;;;7.78;;
10212;SDS011;5150;51.400;6.692;2022-10-31T10:31:50;16.58;;;6.13;;
10212;SDS011;5150;51.400;6.692;2022-10-31T10:35:17;11.82;;;6.45;;
10212;SDS011;5150;51.400;6.692;2022-10-31T10:38:49;16.88;;;6.13;;
10212;SDS011;5150;51.400;6.692;2022-10-31T10:42:16;21.48;;;7.55;;
10212;SDS011;5150;51.400;6.692;2022-10-31T10:46:03;12.77;;;5.93;;
10212;SDS011;5150;51.400;6.692;2022-10-31T10:50:00;15.90;;;5.82;;
10212;SDS011;5150;51.400;6.692;2022-10-31T10:53:34;20.42;;;7.50;;
10212;SDS011;5150;51.400;6.692;2022-10-31T10:57:35;15.15;;;7.65;;
10212;SDS011;5150;51.400;6.692;2022-10-31T11:01:10;20.42;;;8.13;;
10212;SDS011;5150;51.400;6.692;2022-10-31T11:04:36;19.92;;;7.53;;
10212;SDS011;5150;51.400;6.692;2022-10-31T11:08:03;11.45;;;6.50;;
10212;SDS011;5150;51.400;6.692;2022-10-31T11:11:28;18.50;;;7.35;;
10212;SDS011;5150;51.400;6.692;2022-10-31T11:14:55;19.02;;;7.68;;
10212;SDS011;5150;51.400;6.692;2022-10-31T11:18:22;18.70;;;7.93;;
10212;SDS011;5150;51.400;6.692;2022-10-31T11:21:47;13.32;;;7.22;;
10212;SDS011;5150;51.400;6.692;2022-10-31T11:25:20;15.32;;;7.43;;
10212;SDS011;5150;51.400;6.692;2022-10-31T11:28:43;16.02;;;6.60;;
10212;SDS011;5150;51.400;6.692;2022-10-31T11:32:20;20.27;;;7.75;;
10212;SDS011;5150;51.400;6.692;2022-10-31T11:35:44;12.00;;;7.35;;
10212;SDS011;5150;51.400;6.692;2022-10-31T11:39:16;18.63;;;7.97;;
10212;SDS011;5150;51.400;6.692;2022-10-31T11:42:42;22.33;;;7.80;;
10212;SDS011;5150;51.400;6.692;2022-10-31T11:46:09;18.63;;;8.07;;
10212;SDS011;5150;51.400;6.692;2022-10-31T11:49:37;23.10;;;9.50;;
10212;SDS011;5150;51.400;6.692;2022-10-31T11:53:03;31.17;;;10.48;;
10212;SDS011;5150;51.400;6.692;2022-10-31T11:56:39;23.65;;;9.40;;
10212;SDS011;5150;51.400;6.692;2022-10-31T12:00:04;21.38;;;9.20;;
10212;SDS011;5150;51.400;6.692;2022-10-31T12:03:45;23.35;;;9.05;;
10212;SDS011;5150;51.400;6.692;2022-10-31T12:07:20;23.35;;;8.93;;
10212;SDS011;5150;51.400;6.692;2022-10-31T12:10:46;18.92;;;9.02;;
10212;SDS011;5150;51.400;6.692;2022-10-31T12:14:18;20.02;;;8.23;;
10212;SDS011;5150;51.400;6.692;2022-10-31T12:17:52;22.75;;;8.45;;
10212;SDS011;5150;51.400;6.692;2022-10-31T12:25:13;11.90;;;8.40;;
10212;SDS011;5150;51.400;6.692;2022-10-31T12:32:38;15.13;;;8.73;;
10212;SDS011;5150;51.400;6.692;2022-10-31T12:36:14;26.58;;;8.60;;
10212;SDS011;5150;51.400;6.692;2022-10-31T12:39:57;21.48;;;8.75;;
10212;SDS011;5150;51.400;6.692;2022-10-31T12:43:33;18.52;;;8.20;;
10212;SDS011;5150;51.400;6.692;2022-10-31T12:47:09;11.90;;;8.30;;
10212;SDS011;5150;51.400;6.692;2022-10-31T12:50:51;21.00;;;8.73;;
10212;SDS011;5150;51.400;6.692;2022-10-31T12:54:22;11.35;;;7.78;;
10212;SDS011;5150;51.400;6.692;2022-10-31T12:57:56;14.85;;;7.95;;
10212;SDS011;5150;51.400;6.692;2022-10-31T13:01:26;18.08;;;7.93;;
10212;SDS011;5150;51.400;6.692;2022-10-31T13:04:55;18.23;;;8.98;;
10212;SDS011;5150;51.400;6.692;2022-10-31T13:08:25;19.00;;;8.10;;
10212;SDS011;5150;51.400;6.692;2022-10-31T13:11:53;11.40;;;7.03;;
10212;SDS011;5150;51.400;6.692;2022-10-31T13:15:21;20.73;;;9.32;;
10212;SDS011;5150;51.400;6.692;2022-10-31T13:18:48;16.10;;;7.32;;
10212;SDS011;5150;51.400;6.692;2022-10-31T13:22:16;14.82;;;7.78;;
10212;SDS011;5150;51.400;6.692;2022-10-31T13:25:44;14.20;;;8.60;;
10212;SDS011;5150;51.400;6.692;2022-10-31T13:29:14;19.95;;;8.45;;
10212;SDS011;5150;51.400;6.692;2022-10-31T13:32:46;13.13;;;7.97;;
10212;SDS011;5150;51.400;6.692;2022-10-31T13:36:19;23.27;;;8.80;;
10212;SDS011;5150;51.400;6.692;2022-10-31T13:39:55;21.67;;;8.02;;
10212;SDS011;5150;51.400;6.692;2022-10-31T13:43:28;24.73;;;8.82;;
10212;SDS011;5150;51.400;6.692;2022-10-31T13:46:55;13.45;;;7.57;;
10212;SDS011;5150;51.400;6.692;2022-10-31T13:50:21;17.92;;;8.63;;
10212;SDS011;5150;51.400;6.692;2022-10-31T13:53:56;12.48;;;7.18;;
10212;SDS011;5150;51.400;6.692;2022-10-31T13:57:29;17.15;;;8.07;;
10212;SDS011;5150;51.400;6.692;2022-10-31T14:00:59;10.80;;;6.28;;
10212;SDS011;5150;51.400;6.692;2022-10-31T14:04:43;12.85;;;7.35;;
10212;SDS011;5150;51.400;6.692;2022-10-31T14:08:15;11.77;;;6.88;;
10212;SDS011;5150;51.400;6.692;2022-10-31T14:11:43;13.90;;;7.22;;
10212;SDS011;5150;51.400;6.692;2022-10-31T14:15:13;15.57;;;6.00;;
10212;SDS011;5150;51.400;6.692;2022-10-31T14:18:39;10.48;;;5.95;;
10212;SDS011;5150;51.400;6.692;2022-10-31T14:22:18;12.38;;;5.90;;
10212;SDS011;5150;51.400;6.692;2022-10-31T14:25:43;11.10;;;5.82;;
10212;SDS011;5150;51.400;6.692;2022-10-31T14:32:53;11.13;;;5.63;;
10212;SDS011;5150;51.400;6.692;2022-10-31T14:36:21;12.45;;;7.13;;
10212;SDS011;5150;51.400;6.692;2022-10-31T14:39:57;6.20;;;5.60;;
10212;SDS011;5150;51.400;6.692;2022-10-31T14:43:50;12.85;;;6.53;;
10212;SDS011;5150;51.400;6.692;2022-10-31T14:47:41;8.80;;;6.55;;
10212;SDS011;5150;51.400;6.692;2022-10-31T14:51:12;12.48;;;6.22;;
10212;SDS011;5150;51.400;6.692;2022-10-31T14:54:40;13.30;;;6.35;;
10212;SDS011;5150;51.400;6.692;2022-10-31T14:58:06;12.15;;;5.82;;
10212;SDS011;5150;51.400;6.692;2022-10-31T15:01:31;11.95;;;6.40;;
10212;SDS011;5150;51.400;6.692;2022-10-31T15:04:58;11.20;;;6.15;;
10212;SDS011;5150;51.400;6.692;2022-10-31T15:08:29;11.45;;;6.20;;
10212;SDS011;5150;51.400;6.692;2022-10-31T15:11:58;9.32;;;5.70;;
10212;SDS011;5150;51.400;6.692;2022-10-31T15:15:22;11.88;;;6.70;;
10212;SDS011;5150;51.400;6.692;2022-10-31T15:18:52;15.13;;;5.53;;
10212;SDS011;5150;51.400;6.692;2022-10-31T15:22:18;10.75;;;5.57;;
10212;SDS011;5150;51.400;6.692;2022-10-31T15:25:44;15.13;;;5.53;;
10212;SDS011;5150;51.400;6.692;2022-10-31T15:29:11;10.35;;;6.13;;
10212;SDS011;5150;51.400;6.692;2022-10-31T15:32:35;11.60;;;6.78;;
10212;SDS011;5150;51.400;6.692;2022-10-31T15:35:58;10.30;;;5.90;;
10212;SDS011;5150;51.400;6.692;2022-10-31T15:39:24;7.63;;;5.15;;
10212;SDS011;5150;51.400;6.692;2022-10-31T15:42:49;20.63;;;8.10;;
10212;SDS011;5150;51.400;6.692;2022-10-31T15:46:14;12.15;;;6.75;;
10212;SDS011;5150;51.400;6.692;2022-10-31T15:49:38;19.90;;;8.52;;
10212;SDS011;5150;51.400;6.692;2022-10-31T15:53:04;19.58;;;8.75;;
10212;SDS011;5150;51.400;6.692;2022-10-31T15:56:34;13.93;;;7.38;;
10212;SDS011;5150;51.400;6.692;2022-10-31T15:59:58;15.93;;;8.38;;
10212;SDS011;5150;51.400;6.692;2022-10-31T16:03:23;41.08;;;14.27;;
10212;SDS011;5150;51.400;6.692;2022-10-31T16:06:55;22.42;;;10.73;;
10212;SDS011;5150;51.400;6.692;2022-10-31T16:10:22;16.83;;;9.23;;
10212;SDS011;5150;51.400;6.692;2022-10-31T16:13:55;23.13;;;9.85;;
10212;SDS011;5150;51.400;6.692;2022-10-31T16:17:20;30.35;;;12.52;;
10212;SDS011;5150;51.400;6.692;2022-10-31T16:20:47;24.77;;;11.00;;
10212;SDS011;5150;51.400;6.692;2022-10-31T16:24:15;92.97;;;31.48;;
10212;SDS011;5150;51.400;6.692;2022-10-31T16:27:47;58.88;;;19.85;;
10212;SDS011;5150;51.400;6.692;2022-10-31T16:31:16;49.40;;;19.50;;
10212;SDS011;5150;51.400;6.692;2022-10-31T16:34:56;35.40;;;15.60;;
10212;SDS011;5150;51.400;6.692;2022-10-31T16:38:20;38.25;;;19.00;;
10212;SDS011;5150;51.400;6.692;2022-10-31T16:41:44;58.08;;;22.15;;
10212;SDS011;5150;51.400;6.692;2022-10-31T16:45:13;60.75;;;21.85;;
10212;SDS011;5150;51.400;6.692;2022-10-31T16:48:40;48.40;;;19.13;;
10212;SDS011;5150;51.400;6.692;2022-10-31T16:52:03;39.03;;;18.08;;
10212;SDS011;5150;51.400;6.692;2022-10-31T16:55:26;34.25;;;17.88;;
10212;SDS011;5150;51.400;6.692;2022-10-31T16:58:49;42.78;;;15.23;;
10212;SDS011;5150;51.400;6.692;2022-10-31T17:02:13;48.58;;;15.40;;
10212;SDS011;5150;51.400;6.692;2022-10-31T17:05:39;26.15;;;13.07;;
10212;SDS011;5150;51.400;6.692;2022-10-31T17:09:02;28.67;;;13.35;;
10212;SDS011;5150;51.400;6.692;2022-10-31T17:12:25;33.63;;;14.85;;
10212;SDS011;5150;51.400;6.692;2022-10-31T17:15:50;43.30;;;13.55;;
10212;SDS011;5150;51.400;6.692;2022-10-31T17:19:15;31.65;;;13.15;;
10212;SDS011;5150;51.400;6.692;2022-10-31T17:22:39;34.58;;;13.50;;
10212;SDS011;5150;51.400;6.692;2022-10-31T17:26:02;37.28;;;12.13;;
10212;SDS011;5150;51.400;6.692;2022-10-31T17:29:26;26.42;;;12.25;;
10212;SDS011;5150;51.400;6.692;2022-10-31T17:32:49;40.22;;;13.27;;
10212;SDS011;5150;51.400;6.692;2022-10-31T17:36:13;21.77;;;10.77;;
10212;SDS011;5150;51.400;6.692;2022-10-31T17:39:37;33.70;;;12.18;;
10212;SDS011;5150;51.400;6.692;2022-10-31T17:43:00;24.65;;;12.55;;
10212;SDS011;5150;51.400;6.692;2022-10-31T17:46:24;23.70;;;12.35;;
10212;SDS011;5150;51.400;6.692;2022-10-31T17:49:47;27.33;;;11.73;;
10212;SDS011;5150;51.400;6.692;2022-10-31T17:53:10;18.63;;;10.98;;
10212;SDS011;5150;51.400;6.692;2022-10-31T17:56:34;22.08;;;12.13;;
10212;SDS011;5150;51.400;6.692;2022-10-31T17:59:57;24.70;;;12.15;;
10212;SDS011;5150;51.400;6.692;2022-10-31T18:03:20;25.50;;;11.57;;
10212;SDS011;5150;51.400;6.692;2022-10-31T18:06:43;26.60;;;10.32;;
10212;SDS011;5150;51.400;6.692;2022-10-31T18:10:08;19.73;;;11.52;;
10212;SDS011;5150;51.400;6.692;2022-10-31T18:13:33;26.33;;;11.13;;
10212;SDS011;5150;51.400;6.692;2022-10-31T18:16:56;23.50;;;11.68;;
10212;SDS011;5150;51.400;6.692;2022-10-31T18:20:19;28.00;;;10.95;;
10212;SDS011;5150;51.400;6.692;2022-10-31T18:23:42;21.08;;;11.57;;
10212;SDS011;5150;51.400;6.692;2022-10-31T18:27:05;26.90;;;11.48;;
10212;SDS011;5150;51.400;6.692;2022-10-31T18:30:30;23.10;;;10.18;;
10212;SDS011;5150;51.400;6.692;2022-10-31T18:33:53;27.00;;;12.25;;
10212;SDS011;5150;51.400;6.692;2022-10-31T18:37:16;18.13;;;10.52;;
10212;SDS011;5150;51.400;6.692;2022-10-31T18:40:39;15.73;;;10.23;;
10212;SDS011;5150;51.400;6.692;2022-10-31T18:44:02;22.95;;;10.80;;
10212;SDS011;5150;51.400;6.692;2022-10-31T18:47:27;19.10;;;9.60;;
10212;SDS011;5150;51.400;6.692;2022-10-31T18:50:50;21.60;;;12.43;;
10212;SDS011;5150;51.400;6.692;2022-10-31T18:54:18;21.13;;;11.20;;
10212;SDS011;5150;51.400;6.692;2022-10-31T18:57:41;22.23;;;10.55;;
10212;SDS011;5150;51.400;6.692;2022-10-31T19:01:04;14.98;;;9.40;;
10212;SDS011;5150;51.400;6.692;2022-10-31T19:04:30;18.77;;;10.93;;
10212;SDS011;5150;51.400;6.692;2022-10-31T19:07:53;19.42;;;10.00;;
10212;SDS011;5150;51.400;6.692;2022-10-31T19:11:16;21.08;;;9.90;;
10212;SDS011;5150;51.400;6.692;2022-10-31T19:14:38;21.77;;;9.70;;
10212;SDS011;5150;51.400;6.692;2022-10-31T19:18:02;17.42;;;10.20;;
10212;SDS011;5150;51.400;6.692;2022-10-31T19:21:27;21.35;;;9.80;;
10212;SDS011;5150;51.400;6.692;2022-10-31T19:24:50;20.60;;;9.32;;
10212;SDS011;5150;51.400;6.692;2022-10-31T19:28:13;15.93;;;9.88;;
10212;SDS011;5150;51.400;6.692;2022-10-31T19:31:36;14.88;;;9.63;;
10212;SDS011;5150;51.400;6.692;2022-10-31T19:34:59;11.70;;;9.45;;
10212;SDS011;5150;51.400;6.692;2022-10-31T19:38:24;16.52;;;10.75;;
10212;SDS011;5150;51.400;6.692;2022-10-31T19:41:47;13.23;;;8.13;;
10212;SDS011;5150;51.400;6.692;2022-10-31T19:45:10;12.40;;;8.55;;
10212;SDS011;5150;51.400;6.692;2022-10-31T19:48:34;17.13;;;8.70;;
10212;SDS011;5150;51.400;6.692;2022-10-31T19:51:58;13.15;;;9.68;;
10212;SDS011;5150;51.400;6.692;2022-10-31T19:55:22;14.95;;;9.02;;
10212;SDS011;5150;51.400;6.692;2022-10-31T19:58:45;16.55;;;8.50;;
10212;SDS011;5150;51.400;6.692;2022-10-31T20:02:10;11.50;;;8.52;;
10212;SDS011;5150;51.400;6.692;2022-10-31T20:05:40;15.00;;;9.18;;
10212;SDS011;5150;51.400;6.692;2022-10-31T20:09:04;15.75;;;9.10;;
10212;SDS011;5150;51.400;6.692;2022-10-31T20:12:32;13.13;;;8.10;;
10212;SDS011;5150;51.400;6.692;2022-10-31T20:15:57;12.30;;;8.35;;
10212;SDS011;5150;51.400;6.692;2022-10-31T20:19:21;16.67;;;8.73;;
10212;SDS011;5150;51.400;6.692;2022-10-31T20:22:44;19.23;;;8.52;;
10212;SDS011;5150;51.400;6.692;2022-10-31T20:26:10;13.18;;;8.38;;
10212;SDS011;5150;51.400;6.692;2022-10-31T20:29:35;12.48;;;8.63;;
10212;SDS011;5150;51.400;6.692;2022-10-31T20:32:58;11.18;;;7.82;;
10212;SDS011;5150;51.400;6.692;2022-10-31T20:36:21;14.85;;;8.05;;
10212;SDS011;5150;51.400;6.692;2022-10-31T20:39:45;13.23;;;8.52;;
10212;SDS011;5150;51.400;6.692;2022-10-31T20:43:12;12.93;;;8.05;;
10212;SDS011;5150;51.400;6.692;2022-10-31T20:46:37;13.25;;;8.63;;
10212;SDS011;5150;51.400;6.692;2022-10-31T20:50:00;10.43;;;8.35;;
10212;SDS011;5150;51.400;6.692;2022-10-31T20:53:25;13.02;;;7.22;;
10212;SDS011;5150;51.400;6.692;2022-10-31T20:56:48;14.35;;;8.82;;
10212;SDS011;5150;51.400;6.692;2022-10-31T21:00:12;12.00;;;8.57;;
10212;SDS011;5150;51.400;6.692;2022-10-31T21:03:36;10.95;;;7.90;;
10212;SDS011;5150;51.400;6.692;2022-10-31T21:07:00;11.52;;;6.95;;
10212;SDS011;5150;51.400;6.692;2022-10-31T21:10:23;12.05;;;6.85;;
10212;SDS011;5150;51.400;6.692;2022-10-31T21:13:46;8.95;;;7.38;;
10212;SDS011;5150;51.400;6.692;2022-10-31T21:17:10;7.97;;;7.18;;
10212;SDS011;5150;51.400;6.692;2022-10-31T21:20:34;10.15;;;7.53;;
10212;SDS011;5150;51.400;6.692;2022-10-31T21:24:02;13.52;;;7.65;;
10212;SDS011;5150;51.400;6.692;2022-10-31T21:27:27;15.98;;;7.47;;